createdAt,value
2023-05-01T00:02:12.121Z,13.80
2023-05-01T00:04:44.024Z,13.60
2023-05-01T00:07:16.706Z,13.60
2023-05-01T00:12:21.642Z,13.50
2023-05-01T00:14:56.735Z,13.70
2023-05-01T00:20:05.187Z,13.80
2023-05-01T00:35:21.013Z,13.70
2023-05-01T00:40:26.173Z,13.80
2023-05-01T00:42:58.360Z,13.80
2023-05-01T00:45:30.331Z,13.80
2023-05-01T00:48:03.387Z,13.80
2023-05-01T00:50:35.406Z,13.80
2023-05-01T00:55:42.947Z,13.70
2023-05-01T00:58:19.026Z,13.70
2023-05-01T01:03:24.854Z,13.60
2023-05-01T01:06:13.552Z,13.60
2023-05-01T01:09:01.171Z,13.60
2023-05-01T01:12:01.493Z,13.50
2023-05-01T01:14:55.619Z,13.50
2023-05-01T01:17:37.983Z,13.50
2023-05-01T01:20:42.716Z,13.40
2023-05-01T01:24:03.803Z,13.40
2023-05-01T01:27:24.326Z,13.40
2023-05-01T01:30:23.668Z,13.40
2023-05-01T01:33:25.566Z,13.30
2023-05-01T01:36:03.424Z,13.30
2023-05-01T01:38:46.642Z,13.30
2023-05-01T01:41:28.009Z,13.30
2023-05-01T01:44:34.154Z,13.20
2023-05-01T01:47:11.113Z,13.20
2023-05-01T01:49:49.893Z,13.20
2023-05-01T01:52:24.518Z,13.20
2023-05-01T01:55:05.206Z,13.20
2023-05-01T01:57:40.391Z,13.20
2023-05-01T02:00:16.839Z,13.10
2023-05-01T02:02:53.817Z,13.10
2023-05-01T02:05:28.496Z,13.10
2023-05-01T02:08:02.178Z,13.10
2023-05-01T02:10:36.986Z,13.20
2023-05-01T02:13:12.273Z,13.00
2023-05-01T02:15:46.302Z,13.10
2023-05-01T02:20:52.725Z,13.20
2023-05-01T02:26:03.240Z,13.00
2023-05-01T02:28:37.354Z,12.20
2023-05-01T02:33:42.727Z,12.90
2023-05-01T02:36:15.961Z,12.80
2023-05-01T02:38:50.941Z,12.80
2023-05-01T02:41:25.930Z,12.90
2023-05-01T02:44:04.367Z,13.00
2023-05-01T02:46:38.569Z,13.00
2023-05-01T02:51:46.345Z,12.90
2023-05-01T02:54:19.239Z,12.80
2023-05-01T02:56:52.901Z,12.80
2023-05-01T02:59:25.001Z,12.80
2023-05-01T03:04:30.860Z,12.80
2023-05-01T03:12:10.549Z,13.00
2023-05-01T03:14:42.486Z,13.00
2023-05-01T03:17:15.584Z,13.00
2023-05-01T03:22:22.811Z,12.90
2023-05-01T03:27:28.768Z,13.00
2023-05-01T03:30:00.706Z,13.00
2023-05-01T03:32:37.700Z,13.10
2023-05-01T03:35:11.621Z,12.90
2023-05-01T03:40:21.285Z,12.90
2023-05-01T03:43:16.953Z,12.90
2023-05-01T03:45:50.280Z,12.80
2023-05-01T03:48:22.843Z,12.60
2023-05-01T03:50:57.771Z,12.50
2023-05-01T03:53:30.132Z,12.50
2023-05-01T03:56:05.042Z,12.60
2023-05-01T03:58:37.206Z,12.60
2023-05-01T04:01:10.513Z,12.60
2023-05-01T04:03:48.764Z,12.70
2023-05-01T04:06:20.980Z,12.80
2023-05-01T04:08:53.724Z,12.80
2023-05-01T04:11:25.613Z,12.80
2023-05-01T04:16:31.055Z,12.80
2023-05-01T04:19:03.900Z,12.70
2023-05-01T04:31:50.250Z,12.70
2023-05-01T04:36:57.622Z,12.80
2023-05-01T04:39:29.941Z,12.80
2023-05-01T04:42:04.301Z,12.90
2023-05-01T04:44:37.690Z,12.90
2023-05-01T04:47:09.917Z,12.90
2023-05-01T04:49:42.815Z,12.90
2023-05-01T04:52:14.823Z,13.00
2023-05-01T04:55:01.178Z,12.90
2023-05-01T05:00:12.879Z,12.90
2023-05-01T05:02:55.566Z,12.90
2023-05-01T05:05:28.572Z,12.90
2023-05-01T05:13:30.683Z,13.10
2023-05-01T05:16:08.770Z,13.00
2023-05-01T05:18:41.708Z,13.10
2023-05-01T05:21:13.774Z,13.00
2023-05-01T05:23:52.663Z,12.90
2023-05-01T05:26:26.947Z,13.00
2023-05-01T05:29:03.669Z,13.00
2023-05-01T05:31:36.619Z,13.00
2023-05-01T05:34:09.150Z,12.90
2023-05-01T05:36:41.682Z,12.90
2023-05-01T05:39:14.040Z,12.90
2023-05-01T05:41:47.423Z,13.00
2023-05-01T05:44:21.646Z,13.00
2023-05-01T05:46:53.878Z,13.00
2023-05-01T05:49:34.400Z,13.00
2023-05-01T05:52:06.903Z,13.00
2023-05-01T05:54:38.811Z,13.00
2023-05-01T05:57:12.256Z,12.90
2023-05-01T05:59:48.632Z,12.80
2023-05-01T06:04:57.879Z,12.70
2023-05-01T06:07:33.520Z,12.80
2023-05-01T06:10:08.131Z,12.90
2023-05-01T06:17:59.932Z,13.10
2023-05-01T06:20:32.788Z,13.20
2023-05-01T06:23:04.739Z,13.00
2023-05-01T06:25:57.729Z,12.80
2023-05-01T06:28:30.076Z,12.70
2023-05-01T06:33:39.447Z,12.70
2023-05-01T06:36:26.495Z,12.70
2023-05-01T06:38:58.909Z,12.70
2023-05-01T06:41:32.512Z,12.80
2023-05-01T06:46:38.296Z,13.00
2023-05-01T06:49:10.533Z,13.10
2023-05-01T06:51:42.864Z,13.10
2023-05-01T06:54:17.647Z,13.30
2023-05-01T06:56:50.686Z,13.30
2023-05-01T06:59:23.060Z,13.10
2023-05-01T07:01:55.347Z,12.90
2023-05-01T07:07:01.403Z,13.20
2023-05-01T07:09:33.639Z,13.20
2023-05-01T07:12:07.166Z,13.20
2023-05-01T07:14:39.447Z,13.20
2023-05-01T07:17:11.491Z,13.10
2023-05-01T07:19:43.768Z,12.90
2023-05-01T07:24:48.821Z,12.80
2023-05-01T07:29:55.950Z,12.70
2023-05-01T07:35:01.194Z,12.60
2023-05-01T07:45:13.362Z,12.90
2023-05-01T07:47:45.831Z,12.80
2023-05-01T07:50:18.375Z,12.60
2023-05-01T07:55:24.734Z,12.70
2023-05-01T07:57:56.711Z,12.70
2023-05-01T08:00:29.900Z,12.90
2023-05-01T08:03:02.447Z,13.00
2023-05-01T08:05:35.379Z,12.90
2023-05-01T08:08:07.249Z,12.90
2023-05-01T08:10:39.978Z,12.80
2023-05-01T08:15:48.164Z,12.80
2023-05-01T08:18:21.086Z,12.80
2023-05-01T08:23:48.163Z,12.70
2023-05-01T08:26:22.558Z,12.70
2023-05-01T08:28:55.146Z,12.80
2023-05-01T08:31:27.512Z,12.90
2023-05-01T08:33:59.807Z,13.00
2023-05-01T08:36:34.968Z,13.30
2023-05-01T08:41:40.831Z,13.30
2023-05-01T08:44:16.773Z,13.50
2023-05-01T08:47:12.774Z,13.60
2023-05-01T08:49:47.621Z,13.60
2023-05-01T08:52:22.200Z,13.70
2023-05-01T08:54:57.759Z,13.90
2023-05-01T08:57:31.833Z,13.90
2023-05-01T09:03:04.476Z,14.30
2023-05-01T09:10:46.408Z,14.80
2023-05-01T09:15:52.733Z,15.50
2023-05-01T09:18:25.765Z,16.10
2023-05-01T09:26:10.609Z,16.10
2023-05-01T09:28:45.751Z,16.20
2023-05-01T09:31:23.814Z,15.70
2023-05-01T09:34:02.290Z,15.50
2023-05-01T09:36:35.170Z,15.80
2023-05-01T09:41:52.817Z,16.30
2023-05-01T09:44:25.571Z,16.70
2023-05-01T09:46:58.788Z,17.10
2023-05-01T09:49:48.323Z,17.30
2023-05-01T09:55:17.048Z,16.80
2023-05-01T10:00:25.259Z,17.30
2023-05-01T10:02:58.244Z,17.20
2023-05-01T10:05:44.779Z,17.80
2023-05-01T10:08:17.160Z,17.70
2023-05-01T10:11:05.617Z,18.50
2023-05-01T10:16:30.442Z,19.00
2023-05-01T10:19:04.772Z,18.00
2023-05-01T10:24:11.448Z,17.70
2023-05-01T10:26:43.704Z,17.70
2023-05-01T10:29:16.408Z,17.60
2023-05-01T10:34:26.147Z,19.00
2023-05-01T10:37:07.214Z,19.90
2023-05-01T10:39:39.802Z,19.70
2023-05-01T10:42:16.001Z,18.50
2023-05-01T10:44:49.540Z,20.00
2023-05-01T10:47:28.707Z,20.70
2023-05-01T10:50:11.040Z,21.00
2023-05-01T10:53:12.090Z,21.90
2023-05-01T10:55:46.192Z,21.50
2023-05-01T10:58:37.704Z,20.60
2023-05-01T11:01:29.986Z,19.10
2023-05-01T11:07:18.864Z,19.70
2023-05-01T11:09:55.914Z,18.60
2023-05-01T11:12:46.979Z,18.70
2023-05-01T11:15:30.970Z,19.00
2023-05-01T11:20:57.479Z,20.00
2023-05-01T11:23:29.781Z,20.40
2023-05-01T11:26:04.865Z,20.70
2023-05-01T11:28:39.838Z,20.50
2023-05-01T11:31:18.484Z,19.30
2023-05-01T11:33:51.431Z,19.00
2023-05-01T11:36:23.523Z,18.90
2023-05-01T11:39:00.054Z,18.80
2023-05-01T11:46:38.563Z,18.60
2023-05-01T11:49:12.376Z,18.90
2023-05-01T11:54:18.050Z,19.70
2023-05-01T11:57:02.305Z,19.10
2023-05-01T11:59:34.258Z,19.50
2023-05-01T12:02:20.919Z,19.20
2023-05-01T12:04:53.986Z,19.20
2023-05-01T12:07:26.514Z,19.00
2023-05-01T12:09:58.473Z,19.20
2023-05-01T12:12:31.615Z,19.50
2023-05-01T12:15:04.645Z,19.30
2023-05-01T12:17:37.870Z,18.90
2023-05-01T12:20:10.844Z,18.80
2023-05-01T12:22:50.534Z,19.10
2023-05-01T12:25:30.483Z,19.20
2023-05-01T12:28:10.157Z,19.50
2023-05-01T12:30:44.826Z,20.10
2023-05-01T12:33:20.208Z,20.30
2023-05-01T12:35:52.986Z,20.30
2023-05-01T12:39:02.956Z,20.20
2023-05-01T12:41:41.237Z,20.00
2023-05-01T12:44:24.900Z,19.60
2023-05-01T12:47:06.641Z,19.70
2023-05-01T12:54:45.981Z,19.00
2023-05-01T13:00:05.781Z,19.50
2023-05-01T13:02:38.432Z,19.30
2023-05-01T13:05:12.561Z,19.20
2023-05-01T13:07:49.639Z,18.90
2023-05-01T13:10:32.024Z,18.80
2023-05-01T13:18:11.049Z,19.10
2023-05-01T13:25:57.429Z,19.30
2023-05-01T13:31:11.026Z,19.00
2023-05-01T13:41:33.723Z,19.00
2023-05-01T13:44:07.404Z,19.10
2023-05-01T13:46:44.771Z,19.20
2023-05-01T13:49:22.145Z,19.50
2023-05-01T13:51:55.495Z,19.70
2023-05-01T13:54:28.438Z,19.90
2023-05-01T13:57:01.801Z,20.10
2023-05-01T13:59:41.992Z,20.00
2023-05-01T14:02:25.463Z,20.30
2023-05-01T14:05:00.106Z,20.40
2023-05-01T14:07:33.520Z,20.10
2023-05-01T14:10:09.844Z,19.80
2023-05-01T14:17:50.512Z,19.70
2023-05-01T14:20:25.878Z,19.60
2023-05-01T14:23:00.045Z,19.30
2023-05-01T14:25:35.126Z,19.50
2023-05-01T14:30:41.565Z,19.40
2023-05-01T14:33:14.915Z,19.30
2023-05-01T14:35:53.971Z,19.30
2023-05-01T14:38:27.935Z,19.70
2023-05-01T14:43:34.111Z,20.30
2023-05-01T14:46:07.296Z,19.80
2023-05-01T14:48:42.455Z,19.90
2023-05-01T14:51:20.157Z,19.50
2023-05-01T14:53:53.047Z,19.90
2023-05-01T14:58:57.988Z,20.40
2023-05-01T15:01:30.101Z,20.70
2023-05-01T15:04:04.025Z,20.10
2023-05-01T15:06:37.139Z,20.50
2023-05-01T15:09:10.263Z,20.20
2023-05-01T15:14:16.319Z,20.10
2023-05-01T15:16:48.751Z,20.00
2023-05-01T15:19:22.871Z,19.80
2023-05-01T15:21:55.187Z,19.60
2023-05-01T15:24:27.092Z,19.40
2023-05-01T15:29:32.524Z,19.10
2023-05-01T15:32:11.864Z,18.80
2023-05-01T15:34:44.407Z,18.80
2023-05-01T15:39:53.157Z,18.90
2023-05-01T15:42:27.572Z,18.90
2023-05-01T15:45:00.444Z,18.90
2023-05-01T15:50:27.780Z,19.10
2023-05-01T15:52:59.726Z,19.00
2023-05-01T16:03:12.751Z,19.40
2023-05-01T16:05:49.201Z,19.30
2023-05-01T16:08:22.233Z,19.40
2023-05-01T16:10:55.141Z,19.40
2023-05-01T16:13:28.007Z,19.60
2023-05-01T16:16:02.075Z,19.70
2023-05-01T16:18:35.062Z,19.60
2023-05-01T16:21:10.261Z,19.30
2023-05-01T16:26:35.876Z,19.20
2023-05-01T16:29:09.046Z,19.40
2023-05-01T16:31:48.060Z,19.20
2023-05-01T16:34:25.413Z,19.20
2023-05-01T16:39:38.411Z,18.60
2023-05-01T16:42:13.712Z,17.80
2023-05-01T16:44:45.752Z,17.60
2023-05-01T16:47:18.640Z,17.70
2023-05-01T16:49:52.266Z,17.60
2023-05-01T16:57:31.872Z,17.20
2023-05-01T17:02:40.027Z,16.80
2023-05-01T17:10:39.535Z,16.20
2023-05-01T17:13:17.639Z,16.30
2023-05-01T17:18:23.078Z,16.30
2023-05-01T17:20:55.778Z,16.20
2023-05-01T17:23:29.322Z,16.30
2023-05-01T17:33:41.317Z,16.10
2023-05-01T17:36:13.786Z,15.80
2023-05-01T17:43:51.279Z,15.90
2023-05-01T17:46:24.071Z,15.80
2023-05-01T17:51:30.116Z,15.50
2023-05-01T17:54:02.186Z,15.40
2023-05-01T17:56:35.109Z,15.40
2023-05-01T18:06:49.572Z,15.00
2023-05-01T18:09:22.654Z,14.90
2023-05-01T18:14:27.861Z,14.80
2023-05-01T18:17:00.787Z,15.30
2023-05-01T18:19:33.140Z,15.70
2023-05-01T18:27:12.588Z,15.70
2023-05-01T18:29:45.282Z,15.40
2023-05-01T18:39:59.272Z,14.70
2023-05-01T18:45:08.008Z,14.60
2023-05-01T18:50:13.158Z,14.50
2023-05-01T18:52:46.037Z,14.50
2023-05-01T18:57:52.341Z,14.50
2023-05-01T19:00:26.357Z,14.60
2023-05-01T19:02:59.835Z,14.60
2023-05-01T19:08:07.436Z,14.30
2023-05-01T19:10:39.472Z,14.30
2023-05-01T19:13:12.429Z,14.20
2023-05-01T19:15:44.820Z,14.00
2023-05-01T19:18:16.828Z,14.00
2023-05-01T19:23:22.417Z,13.90
2023-05-01T19:25:55.474Z,14.00
2023-05-01T19:28:28.988Z,14.30
2023-05-01T19:31:01.229Z,14.20
2023-05-01T19:33:34.216Z,14.20
2023-05-01T19:41:13.645Z,14.10
2023-05-01T19:43:46.378Z,14.10
2023-05-01T19:48:52.686Z,14.10
2023-05-01T19:51:25.010Z,14.10
2023-05-01T19:53:57.382Z,14.10
2023-05-01T19:56:29.988Z,14.00
2023-05-01T19:59:02.991Z,14.00
2023-05-01T20:04:10.143Z,14.00
2023-05-01T20:06:42.172Z,14.00
2023-05-01T20:09:14.930Z,13.90
2023-05-01T20:11:46.812Z,13.90
2023-05-01T20:14:19.760Z,13.80
2023-05-01T20:22:01.635Z,13.80
2023-05-01T20:24:33.515Z,13.70
2023-05-01T20:32:12.740Z,13.80
2023-05-01T20:37:17.743Z,13.80
2023-05-01T20:39:49.673Z,13.70
2023-05-01T20:42:23.757Z,13.60
2023-05-01T20:44:55.712Z,13.50
2023-05-01T20:47:28.518Z,13.40
2023-05-01T20:50:00.772Z,13.40
2023-05-01T20:55:07.197Z,13.40
2023-05-01T21:00:13.274Z,13.30
2023-05-01T21:02:46.098Z,13.20
2023-05-01T21:05:18.081Z,13.10
2023-05-01T21:07:50.841Z,13.10
2023-05-01T21:10:22.823Z,13.10
2023-05-01T21:12:56.641Z,13.00
2023-05-01T21:15:31.107Z,13.00
2023-05-01T21:18:03.492Z,12.90
2023-05-01T21:20:35.469Z,13.00
2023-05-01T21:25:40.836Z,13.00
2023-05-01T21:28:14.873Z,13.10
2023-05-01T21:30:49.335Z,13.10
2023-05-01T21:33:22.129Z,13.10
2023-05-01T21:35:54.060Z,13.00
2023-05-01T21:38:27.288Z,13.00
2023-05-01T21:40:59.121Z,12.90
2023-05-01T21:43:35.360Z,12.90
2023-05-01T21:46:15.724Z,12.90
2023-05-01T21:48:54.324Z,12.90
2023-05-01T21:51:31.794Z,12.90
2023-05-01T21:54:05.292Z,12.90
2023-05-01T21:56:38.000Z,12.90
2023-05-01T21:59:11.292Z,12.80
2023-05-01T22:01:45.056Z,12.90
2023-05-01T22:04:18.409Z,12.80
2023-05-01T22:06:51.397Z,12.80
2023-05-01T22:09:24.114Z,12.70
2023-05-01T22:14:53.269Z,12.70
2023-05-01T22:17:27.148Z,12.70
2023-05-01T22:19:59.263Z,12.70
2023-05-01T22:22:32.242Z,12.70
2023-05-01T22:25:05.079Z,12.50
2023-05-01T22:27:39.011Z,12.50
2023-05-01T22:30:12.167Z,12.50
2023-05-01T22:32:44.056Z,12.50
2023-05-01T22:35:16.898Z,12.50
2023-05-01T22:37:49.200Z,12.40
2023-05-01T22:42:55.071Z,12.30
2023-05-01T22:45:27.228Z,12.30
2023-05-01T22:48:00.027Z,12.20
2023-05-01T22:50:32.346Z,12.20
2023-05-01T22:53:05.183Z,12.20
2023-05-01T22:55:38.115Z,12.20
2023-05-01T22:58:10.438Z,12.20
2023-05-01T23:00:42.342Z,12.20
2023-05-01T23:03:15.830Z,12.20
2023-05-01T23:05:48.762Z,12.30
2023-05-01T23:08:21.530Z,12.30
2023-05-01T23:10:53.477Z,12.20
2023-05-01T23:13:27.672Z,12.20
2023-05-01T23:16:00.173Z,12.10
2023-05-01T23:18:33.259Z,12.10
2023-05-01T23:23:45.216Z,12.30
2023-05-01T23:26:25.927Z,12.30
2023-05-01T23:29:00.319Z,12.30
2023-05-01T23:34:05.101Z,12.30
2023-05-01T23:39:10.693Z,12.30
2023-05-01T23:41:43.717Z,12.30
2023-05-01T23:44:15.890Z,12.30
2023-05-01T23:49:21.056Z,12.30
2023-05-01T23:51:53.749Z,12.30
2023-05-01T23:54:25.920Z,12.30
2023-05-01T23:56:58.903Z,12.30
2023-05-01T23:59:32.179Z,12.30
